Brighton Beach, South Carolina
Current Conditions -  °F | °C
As of 8:50 AM on Monday 24 Nov 2014 (Local Time) from KHXD Reporting Station
Haze Haze  
Wind Chill: 68°   Ceiling: 200
Heat Index: 68°   Visibility: 2mi
Dew Point: 68°   Wind: 8mph
Humidity: 100%   Direction: 200°SSW
Pressure: 29.9"   Gusts: 17mph
Location:  32.2133°N, 80.9033°W
Report Text: KHXD 241350Z 20007G15KT 2SM BR OVC002 20/20 A2990
Loading
Personal Weather Stations






























Interactive Weather Map New forecast layout! Learn more

10-Day Weather Forecast

Advertisements
Track Severe Weather on mobile